createdAt,value
2022-11-26T00:00:53.735Z,100.00
2022-11-26T00:03:20.812Z,100.00
2022-11-26T00:05:50.951Z,100.00
2022-11-26T00:08:28.015Z,100.00
2022-11-26T00:10:54.809Z,100.00
2022-11-26T00:13:24.318Z,100.00
2022-11-26T00:15:51.327Z,100.00
2022-11-26T00:18:19.347Z,100.00
2022-11-26T00:20:50.086Z,100.00
2022-11-26T00:23:22.880Z,100.00
2022-11-26T00:25:52.957Z,100.00
2022-11-26T00:28:31.478Z,100.00
2022-11-26T00:31:04.073Z,100.00
2022-11-26T00:33:31.596Z,100.00
2022-11-26T00:36:02.687Z,100.00
2022-11-26T00:38:30.804Z,100.00
2022-11-26T00:40:58.658Z,100.00
2022-11-26T00:43:25.260Z,100.00
2022-11-26T00:45:51.811Z,100.00
2022-11-26T00:48:19.370Z,100.00
2022-11-26T00:50:51.068Z,100.00
2022-11-26T00:53:20.985Z,100.00
2022-11-26T00:55:49.178Z,100.00
2022-11-26T00:58:25.981Z,100.00
2022-11-26T01:00:53.774Z,100.00
2022-11-26T01:03:20.618Z,100.00
2022-11-26T01:05:54.857Z,100.00
2022-11-26T01:08:29.876Z,100.00
2022-11-26T01:10:57.067Z,100.00
2022-11-26T01:13:23.637Z,100.00
2022-11-26T01:15:50.307Z,100.00
2022-11-26T01:18:20.405Z,100.00
2022-11-26T01:20:48.041Z,100.00
2022-11-26T01:23:17.604Z,100.00
2022-11-26T01:25:45.285Z,100.00
2022-11-26T01:28:15.124Z,100.00
2022-11-26T01:30:42.457Z,100.00
2022-11-26T01:33:09.174Z,100.00
2022-11-26T01:35:36.333Z,100.00
2022-11-26T01:38:04.710Z,100.00
2022-11-26T01:40:55.165Z,100.00
2022-11-26T01:43:41.386Z,100.00
2022-11-26T01:46:15.076Z,100.00
2022-11-26T01:48:42.292Z,100.00
2022-11-26T01:51:10.549Z,100.00
2022-11-26T01:53:44.049Z,100.00
2022-11-26T01:56:22.001Z,100.00
2022-11-26T01:58:54.433Z,100.00
2022-11-26T02:01:21.207Z,100.00
2022-11-26T02:04:08.051Z,100.00
2022-11-26T02:06:35.479Z,100.00
2022-11-26T02:09:06.187Z,100.00
2022-11-26T02:11:33.095Z,100.00
2022-11-26T02:14:02.943Z,100.00
2022-11-26T02:16:29.553Z,100.00
2022-11-26T02:19:26.591Z,100.00
2022-11-26T02:22:01.738Z,100.00
2022-11-26T02:24:51.026Z,100.00
2022-11-26T02:27:40.380Z,100.00
2022-11-26T02:30:12.353Z,100.00
2022-11-26T02:32:54.523Z,100.00
2022-11-26T02:35:26.700Z,100.00
2022-11-26T02:38:02.919Z,100.00
2022-11-26T02:40:29.769Z,100.00
2022-11-26T02:42:56.438Z,100.00
2022-11-26T02:45:27.674Z,100.00
2022-11-26T02:47:57.888Z,100.00
2022-11-26T02:50:29.731Z,100.00
2022-11-26T02:52:58.888Z,100.00
2022-11-26T02:55:31.372Z,100.00
2022-11-26T02:57:58.543Z,100.00
2022-11-26T03:00:25.486Z,100.00
2022-11-26T03:03:04.123Z,100.00
2022-11-26T03:05:37.293Z,100.00
2022-11-26T03:08:05.384Z,100.00
2022-11-26T03:10:32.552Z,100.00
2022-11-26T03:12:59.751Z,100.00
2022-11-26T03:15:26.346Z,100.00
2022-11-26T03:17:52.944Z,100.00
2022-11-26T03:20:19.521Z,100.00
2022-11-26T03:22:46.106Z,100.00
2022-11-26T03:25:12.864Z,100.00
2022-11-26T03:27:39.471Z,100.00
2022-11-26T03:30:06.750Z,100.00
2022-11-26T03:32:33.555Z,100.00
2022-11-26T03:35:00.202Z,100.00
2022-11-26T03:37:26.782Z,100.00
2022-11-26T03:39:53.458Z,100.00
2022-11-26T03:42:20.037Z,100.00
2022-11-26T03:44:46.670Z,100.00
2022-11-26T03:47:13.183Z,100.00
2022-11-26T03:49:39.812Z,100.00
2022-11-26T03:52:06.362Z,100.00
2022-11-26T03:54:32.942Z,100.00
2022-11-26T03:56:59.565Z,100.00
2022-11-26T03:59:26.256Z,100.00
2022-11-26T04:01:52.919Z,100.00
2022-11-26T04:04:19.718Z,100.00
2022-11-26T04:06:46.396Z,100.00
2022-11-26T04:09:13.154Z,100.00
2022-11-26T04:11:39.743Z,100.00
2022-11-26T04:14:06.359Z,100.00
2022-11-26T04:16:33.021Z,100.00
2022-11-26T04:19:00.155Z,100.00
2022-11-26T04:21:26.853Z,100.00
2022-11-26T04:23:53.722Z,100.00
2022-11-26T04:26:20.341Z,100.00
2022-11-26T04:28:47.099Z,100.00
2022-11-26T04:31:14.047Z,100.00
2022-11-26T04:33:40.677Z,100.00
2022-11-26T04:36:07.478Z,100.00
2022-11-26T04:38:34.154Z,100.00
2022-11-26T04:41:01.239Z,100.00
2022-11-26T04:43:27.786Z,100.00
2022-11-26T04:45:54.351Z,100.00
2022-11-26T04:48:21.045Z,100.00
2022-11-26T04:50:49.586Z,100.00
2022-11-26T04:53:16.785Z,100.00
2022-11-26T04:55:44.268Z,100.00
2022-11-26T04:58:10.765Z,100.00
2022-11-26T05:00:37.343Z,100.00
2022-11-26T05:03:04.114Z,100.00
2022-11-26T05:05:32.005Z,100.00
2022-11-26T05:07:58.788Z,100.00
2022-11-26T05:10:26.848Z,100.00
2022-11-26T05:12:53.542Z,100.00
2022-11-26T05:15:20.260Z,100.00
2022-11-26T05:17:46.882Z,100.00
2022-11-26T05:20:14.990Z,100.00
2022-11-26T05:22:42.781Z,100.00
2022-11-26T05:25:10.610Z,100.00
2022-11-26T05:27:37.189Z,100.00
2022-11-26T05:30:08.281Z,100.00
2022-11-26T05:32:34.885Z,100.00
2022-11-26T05:35:01.671Z,100.00
2022-11-26T05:37:28.327Z,100.00
2022-11-26T05:39:54.870Z,100.00
2022-11-26T05:42:21.507Z,100.00
2022-11-26T05:44:48.127Z,100.00
2022-11-26T05:47:14.785Z,100.00
2022-11-26T05:49:41.450Z,100.00
2022-11-26T05:52:08.141Z,100.00
2022-11-26T05:54:34.688Z,100.00
2022-11-26T05:57:01.529Z,100.00
2022-11-26T05:59:28.400Z,100.00
2022-11-26T06:01:55.402Z,100.00
2022-11-26T06:04:22.131Z,100.00
2022-11-26T06:06:48.898Z,100.00
2022-11-26T06:09:15.623Z,100.00
2022-11-26T06:11:42.411Z,100.00
2022-11-26T06:14:10.617Z,100.00
2022-11-26T06:16:37.333Z,100.00
2022-11-26T06:19:04.159Z,100.00
2022-11-26T06:21:30.988Z,100.00
2022-11-26T06:23:59.556Z,100.00
2022-11-26T06:26:26.590Z,100.00
2022-11-26T06:28:53.203Z,100.00
2022-11-26T06:31:19.845Z,100.00
2022-11-26T06:33:46.607Z,100.00
2022-11-26T06:36:13.333Z,100.00
2022-11-26T06:38:39.907Z,100.00
2022-11-26T06:41:08.569Z,100.00
2022-11-26T06:43:35.264Z,100.00
2022-11-26T06:46:04.377Z,100.00
2022-11-26T06:48:31.458Z,100.00
2022-11-26T06:51:02.663Z,100.00
2022-11-26T06:53:29.365Z,100.00
2022-11-26T06:56:00.131Z,100.00
2022-11-26T06:58:27.007Z,100.00
2022-11-26T07:00:53.897Z,100.00
2022-11-26T07:03:23.931Z,100.00
2022-11-26T07:05:52.362Z,100.00
2022-11-26T07:08:18.966Z,100.00
2022-11-26T07:10:48.953Z,100.00
2022-11-26T07:13:15.989Z,100.00
2022-11-26T07:15:42.628Z,100.00
2022-11-26T07:18:09.294Z,100.00
2022-11-26T07:20:36.906Z,100.00
2022-11-26T07:23:04.718Z,100.00
2022-11-26T07:25:31.656Z,100.00
2022-11-26T07:27:58.341Z,100.00
2022-11-26T07:30:25.259Z,100.00
2022-11-26T07:32:51.880Z,100.00
2022-11-26T07:35:18.528Z,100.00
2022-11-26T07:37:45.227Z,100.00
2022-11-26T07:40:12.218Z,100.00
2022-11-26T07:42:38.895Z,100.00
2022-11-26T07:45:06.032Z,100.00
2022-11-26T07:47:32.676Z,100.00
2022-11-26T07:49:59.548Z,100.00
2022-11-26T07:52:26.133Z,100.00
2022-11-26T07:54:52.720Z,100.00
2022-11-26T07:57:22.017Z,100.00
2022-11-26T07:59:48.947Z,100.00
2022-11-26T08:02:16.015Z,100.00
2022-11-26T08:04:42.769Z,100.00
2022-11-26T08:07:09.581Z,100.00
2022-11-26T08:09:36.256Z,100.00
2022-11-26T08:12:02.873Z,100.00
2022-11-26T08:14:29.554Z,100.00
2022-11-26T08:16:57.373Z,100.00
2022-11-26T08:19:24.487Z,100.00
2022-11-26T08:21:51.253Z,100.00
2022-11-26T08:24:20.025Z,100.00
2022-11-26T08:26:47.144Z,100.00
2022-11-26T08:29:14.563Z,100.00
2022-11-26T08:31:45.610Z,100.00
2022-11-26T08:34:15.331Z,100.00
2022-11-26T08:36:42.270Z,100.00
2022-11-26T08:39:12.638Z,100.00
2022-11-26T08:41:39.412Z,100.00
2022-11-26T08:44:07.776Z,100.00
2022-11-26T08:46:40.984Z,100.00
2022-11-26T08:49:10.561Z,100.00
2022-11-26T08:51:37.238Z,100.00
2022-11-26T08:54:07.040Z,100.00
2022-11-26T08:56:34.536Z,100.00
2022-11-26T08:59:01.813Z,100.00
2022-11-26T09:01:32.538Z,100.00
2022-11-26T09:04:01.635Z,100.00
2022-11-26T09:06:30.916Z,100.00
2022-11-26T09:09:13.044Z,100.00
2022-11-26T09:11:41.691Z,100.00
2022-11-26T09:14:09.880Z,100.00
2022-11-26T09:16:36.627Z,100.00
2022-11-26T09:19:05.211Z,100.00
2022-11-26T09:21:33.264Z,100.00
2022-11-26T09:24:00.325Z,100.00
2022-11-26T09:26:28.193Z,100.00
2022-11-26T09:28:54.777Z,100.00
2022-11-26T09:31:21.383Z,100.00
2022-11-26T09:33:48.630Z,100.00
2022-11-26T09:36:16.947Z,100.00
2022-11-26T09:38:44.144Z,100.00
2022-11-26T09:41:34.851Z,100.00
2022-11-26T09:44:04.679Z,100.00
2022-11-26T09:47:12.464Z,100.00
2022-11-26T09:50:16.667Z,100.00
2022-11-26T09:52:48.959Z,100.00
2022-11-26T09:55:22.533Z,100.00
2022-11-26T09:58:07.617Z,100.00
2022-11-26T10:00:39.481Z,100.00
2022-11-26T10:03:14.962Z,100.00
2022-11-26T10:05:47.820Z,100.00
2022-11-26T10:08:43.518Z,100.00
2022-11-26T10:11:31.403Z,100.00
2022-11-26T10:14:38.851Z,100.00
2022-11-26T10:17:29.658Z,100.00
2022-11-26T10:20:23.875Z,100.00
2022-11-26T10:23:15.749Z,100.00
2022-11-26T10:25:48.404Z,100.00
2022-11-26T10:28:35.833Z,100.00
2022-11-26T10:31:06.743Z,100.00
2022-11-26T10:33:38.892Z,100.00
2022-11-26T10:36:16.911Z,100.00
2022-11-26T10:38:43.640Z,100.00
2022-11-26T10:41:10.415Z,100.00
2022-11-26T10:43:37.105Z,100.00
2022-11-26T10:46:03.868Z,100.00
2022-11-26T10:48:31.401Z,100.00
2022-11-26T10:51:04.263Z,100.00
2022-11-26T10:53:37.808Z,100.00
2022-11-26T10:56:07.291Z,100.00
2022-11-26T10:58:42.660Z,100.00
2022-11-26T11:01:14.466Z,100.00
2022-11-26T11:04:13.619Z,100.00
2022-11-26T11:06:44.164Z,100.00
2022-11-26T11:09:38.019Z,100.00
2022-11-26T11:12:13.702Z,100.00
2022-11-26T11:14:43.517Z,100.00
2022-11-26T11:17:31.487Z,100.00
2022-11-26T11:20:03.317Z,100.00
2022-11-26T11:22:30.170Z,100.00
2022-11-26T11:24:59.271Z,100.00
2022-11-26T11:27:32.576Z,100.00
2022-11-26T11:30:02.541Z,100.00
2022-11-26T11:32:40.185Z,100.00
2022-11-26T11:35:22.030Z,100.00
2022-11-26T11:37:56.541Z,100.00
2022-11-26T11:40:27.825Z,100.00
2022-11-26T11:43:02.301Z,100.00
2022-11-26T11:45:34.811Z,100.00
2022-11-26T11:48:13.612Z,100.00
2022-11-26T11:50:45.952Z,99.46
2022-11-26T11:53:39.038Z,100.00
2022-11-26T11:56:26.886Z,100.00
2022-11-26T11:59:12.265Z,100.00
2022-11-26T12:01:58.190Z,100.00
2022-11-26T12:04:51.611Z,99.73
2022-11-26T12:07:54.079Z,99.93
2022-11-26T12:10:44.736Z,100.00
2022-11-26T12:13:15.341Z,99.66
2022-11-26T12:15:52.810Z,97.67
2022-11-26T12:18:29.095Z,96.61
2022-11-26T12:21:02.595Z,97.46
2022-11-26T12:23:50.979Z,98.91
2022-11-26T12:26:33.644Z,99.32
2022-11-26T12:29:26.077Z,98.38
2022-11-26T12:31:58.635Z,99.08
2022-11-26T12:34:30.728Z,100.00
2022-11-26T12:37:25.430Z,100.00
2022-11-26T12:40:07.167Z,100.00
2022-11-26T12:42:44.449Z,100.00
2022-11-26T12:45:26.677Z,100.00
2022-11-26T12:48:00.233Z,100.00
2022-11-26T12:50:41.993Z,100.00
2022-11-26T12:53:14.577Z,100.00
2022-11-26T12:56:31.347Z,100.00
2022-11-26T12:59:01.027Z,100.00
2022-11-26T13:01:28.493Z,100.00
2022-11-26T13:04:08.730Z,100.00
2022-11-26T13:07:03.323Z,100.00
2022-11-26T13:10:02.115Z,100.00
2022-11-26T13:12:38.516Z,100.00
2022-11-26T13:15:21.082Z,100.00
2022-11-26T13:17:49.300Z,100.00
2022-11-26T13:20:54.441Z,100.00
2022-11-26T13:23:57.428Z,100.00
2022-11-26T13:26:47.444Z,100.00
2022-11-26T13:29:59.086Z,100.00
2022-11-26T13:33:07.519Z,100.00
2022-11-26T13:36:11.614Z,100.00
2022-11-26T13:38:59.149Z,100.00
2022-11-26T13:42:00.946Z,100.00
2022-11-26T13:44:52.008Z,100.00
2022-11-26T13:47:41.615Z,100.00
2022-11-26T13:50:32.301Z,100.00
2022-11-26T13:53:25.000Z,100.00
2022-11-26T13:56:02.147Z,100.00
2022-11-26T13:58:35.026Z,100.00
2022-11-26T14:01:33.090Z,100.00
2022-11-26T14:04:00.222Z,100.00
2022-11-26T14:06:28.209Z,100.00
2022-11-26T14:08:55.545Z,100.00
2022-11-26T14:11:40.238Z,100.00
2022-11-26T14:14:25.089Z,100.00
2022-11-26T14:17:00.779Z,100.00
2022-11-26T14:19:39.626Z,100.00
2022-11-26T14:22:27.817Z,100.00
2022-11-26T14:25:06.622Z,100.00
2022-11-26T14:27:43.610Z,100.00
2022-11-26T14:30:13.099Z,100.00
2022-11-26T14:32:46.122Z,100.00
2022-11-26T14:35:30.730Z,100.00
2022-11-26T14:38:00.500Z,100.00
2022-11-26T14:40:30.281Z,100.00
2022-11-26T14:43:26.901Z,100.00
2022-11-26T14:46:07.072Z,100.00
2022-11-26T14:48:37.042Z,100.00
2022-11-26T14:51:08.477Z,100.00
2022-11-26T14:53:36.533Z,100.00
2022-11-26T14:56:03.395Z,100.00
2022-11-26T14:58:38.514Z,100.00
2022-11-26T15:01:18.781Z,100.00
2022-11-26T15:03:57.026Z,100.00
2022-11-26T15:06:28.565Z,100.00
2022-11-26T15:09:12.097Z,100.00
2022-11-26T15:11:43.257Z,100.00
2022-11-26T15:14:20.741Z,100.00
2022-11-26T15:16:55.085Z,100.00
2022-11-26T15:19:24.433Z,100.00
2022-11-26T15:21:52.137Z,100.00
2022-11-26T15:24:19.014Z,100.00
2022-11-26T15:26:47.612Z,100.00
2022-11-26T15:29:36.694Z,100.00
2022-11-26T15:32:04.236Z,100.00
2022-11-26T15:34:33.040Z,100.00
2022-11-26T15:36:59.701Z,100.00
2022-11-26T15:39:31.204Z,100.00
2022-11-26T15:42:06.030Z,100.00
2022-11-26T15:44:42.289Z,100.00
2022-11-26T15:47:20.330Z,100.00
2022-11-26T15:49:54.915Z,100.00
2022-11-26T15:52:30.806Z,100.00
2022-11-26T15:55:12.371Z,100.00
2022-11-26T15:57:41.159Z,100.00
2022-11-26T16:00:35.752Z,100.00
2022-11-26T16:03:03.597Z,100.00
2022-11-26T16:05:39.335Z,100.00
2022-11-26T16:08:30.609Z,100.00
2022-11-26T16:11:02.919Z,100.00
2022-11-26T16:13:31.505Z,100.00
2022-11-26T16:16:05.570Z,100.00
2022-11-26T16:18:41.931Z,100.00
2022-11-26T16:21:17.033Z,100.00
2022-11-26T16:23:44.008Z,100.00
2022-11-26T16:26:19.491Z,100.00
2022-11-26T16:28:47.347Z,100.00
2022-11-26T16:31:15.914Z,100.00
2022-11-26T16:33:43.184Z,100.00
2022-11-26T16:36:32.822Z,100.00
2022-11-26T16:38:59.442Z,100.00
2022-11-26T16:41:26.651Z,100.00
2022-11-26T16:43:53.221Z,100.00
2022-11-26T16:46:24.130Z,100.00
2022-11-26T16:48:51.334Z,100.00
2022-11-26T16:51:17.984Z,100.00
2022-11-26T16:53:44.533Z,100.00
2022-11-26T16:56:28.149Z,100.00
2022-11-26T16:58:58.815Z,100.00
2022-11-26T17:01:25.692Z,100.00
2022-11-26T17:03:52.317Z,100.00
2022-11-26T17:06:26.595Z,100.00
2022-11-26T17:08:55.895Z,100.00
2022-11-26T17:11:23.387Z,100.00
2022-11-26T17:13:50.019Z,100.00
2022-11-26T17:16:19.702Z,100.00
2022-11-26T17:18:47.529Z,100.00
2022-11-26T17:21:14.628Z,100.00
2022-11-26T17:23:41.512Z,100.00
2022-11-26T17:26:19.903Z,100.00
2022-11-26T17:28:47.017Z,100.00
2022-11-26T17:31:13.792Z,100.00
2022-11-26T17:33:40.424Z,100.00
2022-11-26T17:36:23.424Z,100.00
2022-11-26T17:38:50.617Z,100.00
2022-11-26T17:41:17.773Z,100.00
2022-11-26T17:43:45.701Z,100.00
2022-11-26T17:46:16.020Z,100.00
2022-11-26T17:48:43.244Z,100.00
2022-11-26T17:51:12.838Z,100.00
2022-11-26T17:53:39.545Z,100.00
2022-11-26T17:56:06.238Z,100.00
2022-11-26T17:58:32.820Z,100.00
2022-11-26T18:00:59.514Z,100.00
2022-11-26T18:03:26.552Z,100.00
2022-11-26T18:05:53.143Z,100.00
2022-11-26T18:08:19.786Z,100.00
2022-11-26T18:10:47.009Z,100.00
2022-11-26T18:13:13.610Z,100.00
2022-11-26T18:15:40.282Z,100.00
2022-11-26T18:18:07.687Z,100.00
2022-11-26T18:20:34.669Z,100.00
2022-11-26T18:23:01.643Z,100.00
2022-11-26T18:25:29.322Z,100.00
2022-11-26T18:27:56.283Z,100.00
2022-11-26T18:30:24.163Z,100.00
2022-11-26T18:32:50.722Z,100.00
2022-11-26T18:35:17.903Z,100.00
2022-11-26T18:37:44.763Z,100.00
2022-11-26T18:40:14.987Z,100.00
2022-11-26T18:42:41.662Z,100.00
2022-11-26T18:45:11.787Z,100.00
2022-11-26T18:47:38.465Z,100.00
2022-11-26T18:50:06.324Z,100.00
2022-11-26T18:52:32.902Z,100.00
2022-11-26T18:55:00.134Z,100.00
2022-11-26T18:57:26.847Z,100.00
2022-11-26T18:59:53.357Z,100.00
2022-11-26T19:02:19.992Z,100.00
2022-11-26T19:04:46.718Z,100.00
2022-11-26T19:07:14.319Z,100.00
2022-11-26T19:09:41.720Z,100.00
2022-11-26T19:12:08.894Z,100.00
2022-11-26T19:14:35.499Z,100.00
2022-11-26T19:17:02.422Z,100.00
2022-11-26T19:19:29.136Z,100.00
2022-11-26T19:22:01.140Z,100.00
2022-11-26T19:24:29.394Z,100.00
2022-11-26T19:26:56.237Z,100.00
2022-11-26T19:29:22.937Z,100.00
2022-11-26T19:31:49.641Z,100.00
2022-11-26T19:34:16.446Z,100.00
2022-11-26T19:36:45.827Z,100.00
2022-11-26T19:39:12.439Z,100.00
2022-11-26T19:41:39.097Z,100.00
2022-11-26T19:44:07.218Z,100.00
2022-11-26T19:46:37.216Z,100.00
2022-11-26T19:49:03.848Z,100.00
2022-11-26T19:51:30.457Z,100.00
2022-11-26T19:53:57.317Z,100.00
2022-11-26T19:56:25.437Z,100.00
2022-11-26T19:58:54.317Z,100.00
2022-11-26T20:01:22.333Z,100.00
2022-11-26T20:03:49.761Z,100.00
2022-11-26T20:06:19.138Z,100.00
2022-11-26T20:08:47.022Z,100.00
2022-11-26T20:11:14.804Z,100.00
2022-11-26T20:13:42.851Z,100.00
2022-11-26T20:16:16.262Z,100.00
2022-11-26T20:18:43.918Z,100.00
2022-11-26T20:21:13.580Z,100.00
2022-11-26T20:23:40.251Z,100.00
2022-11-26T20:26:16.185Z,100.00
2022-11-26T20:28:43.557Z,100.00
2022-11-26T20:31:11.313Z,100.00
2022-11-26T20:33:38.033Z,100.00
2022-11-26T20:36:08.700Z,100.00
2022-11-26T20:38:35.990Z,100.00
2022-11-26T20:41:07.860Z,100.00
2022-11-26T20:43:34.705Z,100.00
2022-11-26T20:46:02.861Z,100.00
2022-11-26T20:48:30.777Z,100.00
2022-11-26T20:51:01.958Z,100.00
2022-11-26T20:53:28.722Z,100.00
2022-11-26T20:55:56.596Z,100.00
2022-11-26T20:58:26.926Z,100.00
2022-11-26T21:00:54.965Z,100.00
2022-11-26T21:03:26.935Z,100.00
2022-11-26T21:05:53.903Z,100.00
2022-11-26T21:08:22.376Z,100.00
2022-11-26T21:10:50.206Z,100.00
2022-11-26T21:13:19.021Z,100.00
2022-11-26T21:15:49.493Z,100.00
2022-11-26T21:18:16.309Z,100.00
2022-11-26T21:20:44.092Z,100.00
2022-11-26T21:23:12.397Z,100.00
2022-11-26T21:25:40.897Z,100.00
2022-11-26T21:28:08.489Z,100.00
2022-11-26T21:30:36.004Z,100.00
2022-11-26T21:33:08.739Z,100.00
2022-11-26T21:35:37.163Z,100.00
2022-11-26T21:38:05.072Z,100.00
2022-11-26T21:40:33.126Z,100.00
2022-11-26T21:42:59.842Z,100.00
2022-11-26T21:45:27.845Z,100.00
2022-11-26T21:47:54.833Z,100.00
2022-11-26T21:50:21.949Z,100.00
2022-11-26T21:52:48.517Z,100.00
2022-11-26T21:55:15.190Z,100.00
2022-11-26T21:57:41.794Z,100.00
2022-11-26T22:00:09.095Z,100.00
2022-11-26T22:02:35.948Z,100.00
2022-11-26T22:05:02.628Z,100.00
2022-11-26T22:07:30.296Z,100.00
2022-11-26T22:09:57.117Z,100.00
2022-11-26T22:12:23.663Z,100.00
2022-11-26T22:14:50.210Z,100.00
2022-11-26T22:17:16.806Z,100.00
2022-11-26T22:19:43.404Z,100.00
2022-11-26T22:22:10.047Z,100.00
2022-11-26T22:24:36.647Z,100.00
2022-11-26T22:27:03.214Z,100.00
2022-11-26T22:29:29.789Z,100.00
2022-11-26T22:31:56.444Z,100.00
2022-11-26T22:34:24.711Z,100.00
2022-11-26T22:36:51.748Z,100.00
2022-11-26T22:39:20.208Z,100.00
2022-11-26T22:41:48.310Z,100.00
2022-11-26T22:44:16.215Z,100.00
2022-11-26T22:46:43.235Z,100.00
2022-11-26T22:49:15.874Z,100.00
2022-11-26T22:51:43.018Z,100.00
2022-11-26T22:54:11.963Z,100.00
2022-11-26T22:56:38.878Z,100.00
2022-11-26T22:59:06.981Z,100.00
2022-11-26T23:01:35.985Z,100.00
2022-11-26T23:04:06.217Z,100.00
2022-11-26T23:06:34.760Z,100.00
2022-11-26T23:09:03.535Z,100.00
2022-11-26T23:11:33.674Z,100.00
2022-11-26T23:14:02.193Z,100.00
2022-11-26T23:16:28.865Z,100.00
2022-11-26T23:18:56.906Z,100.00
2022-11-26T23:21:26.663Z,100.00
2022-11-26T23:23:54.207Z,100.00
2022-11-26T23:26:27.071Z,100.00
2022-11-26T23:28:55.974Z,100.00
2022-11-26T23:31:25.895Z,100.00
2022-11-26T23:33:53.002Z,100.00
2022-11-26T23:36:20.148Z,100.00
2022-11-26T23:38:47.156Z,100.00
2022-11-26T23:41:14.106Z,100.00
2022-11-26T23:43:40.768Z,100.00
2022-11-26T23:46:11.557Z,100.00
2022-11-26T23:48:38.240Z,100.00
2022-11-26T23:51:10.078Z,100.00
2022-11-26T23:53:38.549Z,100.00
2022-11-26T23:56:07.391Z,100.00
2022-11-26T23:58:34.456Z,100.00
